Terminal Aerodrome Forecast
Issued by NWS Cleveland, OH

Home | Current Version | Previous Version | Text Only | Print | Product List | Glossary Off
Versions: 1 2 3 4 5 6 7 8 9 10 11 12 13 14 15 16 17

000
FTUS41 KCLE 021123
TAFCLE
TAF
KCLE 021123Z 0212/0318 02005KT P6SM BKN008 BKN018
      TEMPO 0212/0214 SCT008 BKN018
     FM021400 02008KT P6SM BKN025 BKN045
      TEMPO 0214/0215 SCT025 BKN045
     FM021500 02010KT P6SM SCT025 BKN045
     FM021800 02012KT P6SM SCT045
     FM030100 05005KT P6SM SKC
     FM031400 05010KT P6SM SCT250=

USA.gov is the U.S. government's official web portal to all federal, state and local government web resources and services.